Time;durP1;ratioP1;P1;durP2;ratioP2;P2;SDS_P1;SDS_P2;PMS_P1;PMS_P2;Temp;Humidity;BMP_temperature;BMP_pressure;BME280_temperature;BME280_humidity;BME280_pressure;Samples;Min_cycle;Max_cycle;Signal;HPM_P1;HPM_P2
2022/06/05 00:01:18;;;;;;;7.07;6.20;;;;;;;;;;6185273;23;20561;-89
2022/06/05 00:03:54;;;;;;;7.40;6.70;;;;;;;;;;6185561;23;20450;-89
2022/06/05 00:06:26;;;;;;;7.18;6.47;;;;;;;;;;6185340;23;20156;-89
2022/06/05 00:09:12;;;;;;;8.15;7.07;;;;;;;;;;6185460;23;20048;-88
2022/06/05 00:11:48;;;;;;;8.50;7.63;;;;;;;;;;6187018;23;20005;-89
2022/06/05 00:14:15;;;;;;;9.38;8.48;;;;;;;;;;6185761;23;20493;-86
2022/06/05 00:16:41;;;;;;;8.65;7.85;;;;;;;;;;6186160;23;20005;-89
2022/06/05 00:19:07;;;;;;;8.65;7.85;;;;;;;;;;6185120;23;20048;-88
2022/06/05 00:21:33;;;;;;;9.60;8.60;;;;;;;;;;6185420;23;20326;-90
2022/06/05 00:24:00;;;;;;;9.40;8.48;;;;;;;;;;6185834;23;20013;-88
2022/06/05 00:26:37;;;;;;;10.30;9.30;;;;;;;;;;6197081;23;20364;-89
2022/06/05 00:29:09;;;;;;;10.68;9.57;;;;;;;;;;6185496;23;20394;-87
2022/06/05 00:31:35;;;;;;;10.30;9.23;;;;;;;;;;6185606;23;20009;-89
2022/06/05 00:34:01;;;;;;;12.52;10.40;;;;;;;;;;6185402;23;20315;-86
2022/06/05 00:36:28;;;;;;;12.18;10.90;;;;;;;;;;6185566;23;20426;-88
2022/06/05 00:39:02;;;;;;;12.10;10.88;;;;;;;;;;6185399;23;20013;-89
2022/06/05 00:41:29;;;;;;;12.13;10.40;;;;;;;;;;6185367;23;20005;-88
2022/06/05 00:43:58;;;;;;;11.85;10.75;;;;;;;;;;6186505;23;20005;-89
2022/06/05 00:46:25;;;;;;;12.50;10.00;;;;;;;;;;6185253;23;20013;-89
2022/06/05 00:48:51;;;;;;;9.80;8.90;;;;;;;;;;6185719;23;20071;-89
2022/06/05 00:51:17;;;;;;;11.30;8.35;;;;;;;;;;6186131;23;20008;-88
2022/06/05 00:53:44;;;;;;;9.02;8.13;;;;;;;;;;6187056;23;20170;-88
2022/06/05 00:56:11;;;;;;;9.77;7.68;;;;;;;;;;6187371;23;20386;-90
2022/06/05 00:58:37;;;;;;;9.10;8.20;;;;;;;;;;6187447;23;20060;-88
2022/06/05 01:01:05;;;;;;;8.75;7.93;;;;;;;;;;6193814;23;20063;-87
2022/06/05 01:03:31;;;;;;;10.43;9.23;;;;;;;;;;6187624;23;20008;-89
2022/06/05 01:05:57;;;;;;;10.23;8.77;;;;;;;;;;6197434;23;20012;-88
2022/06/05 01:08:25;;;;;;;9.10;8.20;;;;;;;;;;6197885;23;20276;-89
2022/06/05 01:10:56;;;;;;;14.25;8.50;;;;;;;;;;6187764;23;20059;-89
2022/06/05 01:13:40;;;;;;;9.68;8.70;;;;;;;;;;6188489;23;20005;-89
2022/06/05 01:16:13;;;;;;;9.63;8.63;;;;;;;;;;6187199;23;20009;-89
2022/06/05 01:18:45;;;;;;;9.50;8.40;;;;;;;;;;6187003;23;20012;-89
2022/06/05 01:21:24;;;;;;;10.63;9.38;;;;;;;;;;6187025;23;20005;-87
2022/06/05 01:23:57;;;;;;;10.40;9.40;;;;;;;;;;6176589;23;20378;-89
2022/06/05 01:26:23;;;;;;;11.02;9.80;;;;;;;;;;6187565;23;20426;-89
2022/06/05 01:28:55;;;;;;;10.95;9.85;;;;;;;;;;6186856;23;20068;-88
2022/06/05 01:31:44;;;;;;;13.57;10.75;;;;;;;;;;6187887;23;20059;-90
2022/06/05 01:34:13;;;;;;;16.27;10.93;;;;;;;;;;6168298;23;20005;-87
2022/06/05 01:36:46;;;;;;;13.05;11.85;;;;;;;;;;6187606;23;20005;-88
2022/06/05 01:39:28;;;;;;;13.38;12.18;;;;;;;;;;6188327;23;20005;-88
2022/06/05 01:42:01;;;;;;;14.85;12.82;;;;;;;;;;6187884;23;20020;-89
2022/06/05 01:44:30;;;;;;;13.57;12.25;;;;;;;;;;6187178;23;20013;-89
2022/06/05 01:57:30;;;;;;;16.17;14.50;;;;;;;;;;6216427;23;20024;-89
2022/06/05 01:59:58;;;;;;;17.05;15.02;;;;;;;;;;6191861;23;20009;-89
2022/06/05 02:02:27;;;;;;;16.00;14.45;;;;;;;;;;6191712;23;20378;-89
2022/06/05 02:05:01;;;;;;;17.23;15.57;;;;;;;;;;6191628;23;20016;-89
2022/06/05 02:07:27;;;;;;;;;;;;;;;;;;6192343;23;20032;-87
2022/06/05 02:09:56;;;;;;;16.92;15.32;;;;;;;;;;6191555;23;19911;-87
2022/06/05 02:12:23;;;;;;;16.88;15.35;;;;;;;;;;6192394;23;20004;-88
2022/06/05 02:14:49;;;;;;;17.30;15.70;;;;;;;;;;6200021;23;20023;-89
2022/06/05 02:17:16;;;;;;;18.45;16.60;;;;;;;;;;6191843;23;20028;-89
2022/06/05 02:19:43;;;;;;;17.13;15.52;;;;;;;;;;6191445;23;20088;-89
2022/06/05 02:22:24;;;;;;;18.85;16.95;;;;;;;;;;6191563;23;20425;-87
2022/06/05 02:24:50;;;;;;;19.30;17.38;;;;;;;;;;6217942;23;20008;-89
2022/06/05 02:27:20;;;;;;;20.95;18.85;;;;;;;;;;6191840;23;20000;-89
2022/06/05 02:29:47;;;;;;;22.13;19.98;;;;;;;;;;6191738;23;20087;-89
2022/06/05 02:32:31;;;;;;;23.40;21.08;;;;;;;;;;6191571;23;20226;-88
2022/06/05 02:35:07;;;;;;;24.60;22.08;;;;;;;;;;6191637;23;20016;-88
2022/06/05 02:37:52;;;;;;;23.40;21.10;;;;;;;;;;6191544;23;20438;-88
2022/06/05 02:40:27;;;;;;;24.25;22.05;;;;;;;;;;6191578;23;20005;-89
2022/06/05 02:42:54;;;;;;;23.10;20.75;;;;;;;;;;6191710;23;20031;-88
2022/06/05 02:45:28;;;;;;;23.77;21.40;;;;;;;;;;6191899;23;20016;-89
2022/06/05 02:47:55;;;;;;;24.23;21.92;;;;;;;;;;6218346;23;20000;-90
2022/06/05 02:50:29;;;;;;;23.45;21.17;;;;;;;;;;6194352;23;20004;-89
2022/06/05 02:53:00;;;;;;;23.50;21.30;;;;;;;;;;6191919;23;20024;-90
2022/06/05 02:55:27;;;;;;;23.23;21.08;;;;;;;;;;6191322;23;20028;-88
2022/06/05 02:57:53;;;;;;;22.63;20.20;;;;;;;;;;6191580;23;20040;-88
2022/06/05 03:00:23;;;;;;;23.23;21.05;;;;;;;;;;6191662;23;20008;-91
2022/06/05 03:05:35;;;;;;;23.65;21.25;;;;;;;;;;6218191;23;20515;-88
2022/06/05 03:08:01;;;;;;;22.75;20.65;;;;;;;;;;6191553;23;20027;-88
2022/06/05 03:10:28;;;;;;;22.25;19.95;;;;;;;;;;6191507;23;20009;-89
2022/06/05 03:12:54;;;;;;;24.10;21.70;;;;;;;;;;6191474;23;20057;-88
2022/06/05 03:15:21;;;;;;;23.88;21.58;;;;;;;;;;6190634;23;20457;-90
2022/06/05 03:17:47;;;;;;;22.55;20.45;;;;;;;;;;6191184;23;20123;-89
2022/06/05 03:20:15;;;;;;;24.05;21.70;;;;;;;;;;6191309;23;20078;-90
2022/06/05 03:22:41;;;;;;;22.83;20.52;;;;;;;;;;6191056;23;20004;-90
2022/06/05 03:25:08;;;;;;;22.70;20.33;;;;;;;;;;6217224;23;20039;-89
2022/06/05 03:27:35;;;;;;;22.00;19.95;;;;;;;;;;6195298;23;20001;-89
2022/06/05 03:30:01;;;;;;;21.63;19.63;;;;;;;;;;6221163;23;20023;-89
2022/06/05 03:32:28;;;;;;;20.80;18.75;;;;;;;;;;6191308;23;20362;-88
2022/06/05 03:34:55;;;;;;;20.55;18.50;;;;;;;;;;6191132;23;20032;-88
2022/06/05 03:37:21;;;;;;;20.88;18.85;;;;;;;;;;6190579;23;20063;-88
2022/06/05 03:39:47;;;;;;;20.30;18.48;;;;;;;;;;6190957;23;20015;-89
2022/06/05 03:42:14;;;;;;;20.60;18.80;;;;;;;;;;6217694;23;20005;-90
2022/06/05 03:44:44;;;;;;;19.73;17.83;;;;;;;;;;6190721;23;20012;-89
2022/06/05 03:47:12;;;;;;;19.45;17.60;;;;;;;;;;6191195;23;20008;-89
2022/06/05 03:49:39;;;;;;;20.23;18.42;;;;;;;;;;6190837;23;20008;-88
2022/06/05 03:52:06;;;;;;;18.02;16.33;;;;;;;;;;6190744;23;20007;-90
2022/06/05 03:54:36;;;;;;;17.80;16.10;;;;;;;;;;6190826;23;20005;-90
2022/06/05 03:57:03;;;;;;;17.50;15.90;;;;;;;;;;6190913;23;20016;-88
2022/06/05 03:59:29;;;;;;;17.75;16.15;;;;;;;;;;6191176;23;20025;-89
2022/06/05 04:01:56;;;;;;;19.13;16.80;;;;;;;;;;6190827;23;20039;-89
2022/06/05 04:04:23;;;;;;;19.05;15.20;;;;;;;;;;6198654;23;20013;-89
2022/06/05 04:06:49;;;;;;;16.83;15.10;;;;;;;;;;6191249;23;20008;-88
2022/06/05 04:09:15;;;;;;;16.73;15.13;;;;;;;;;;6217154;23;19996;-89
2022/06/05 04:11:42;;;;;;;16.02;14.52;;;;;;;;;;6190654;23;20009;-89
2022/06/05 04:14:08;;;;;;;16.35;14.75;;;;;;;;;;6199422;23;20005;-88
2022/06/05 04:16:35;;;;;;;17.02;15.45;;;;;;;;;;6206666;23;20005;-89
2022/06/05 04:19:03;;;;;;;15.20;13.70;;;;;;;;;;6196669;23;20331;-88
2022/06/05 04:21:30;;;;;;;16.33;14.82;;;;;;;;;;6217072;23;20027;-88
2022/06/05 04:23:57;;;;;;;15.43;13.88;;;;;;;;;;6191242;23;20019;-89
2022/06/05 04:26:25;;;;;;;15.02;13.63;;;;;;;;;;6191309;23;20008;-89
2022/06/05 04:28:54;;;;;;;14.48;12.98;;;;;;;;;;6190796;23;20419;-89
2022/06/05 04:31:23;;;;;;;13.13;11.73;;;;;;;;;;6190963;23;20005;-89
2022/06/05 04:33:50;;;;;;;12.75;10.18;;;;;;;;;;6190519;23;20008;-89
2022/06/05 04:36:17;;;;;;;11.73;10.02;;;;;;;;;;6190551;23;20009;-90
2022/06/05 04:38:43;;;;;;;10.18;9.10;;;;;;;;;;6191165;23;20012;-89
2022/06/05 04:41:13;;;;;;;8.63;7.70;;;;;;;;;;6194530;23;20009;-89
2022/06/05 04:43:40;;;;;;;8.90;6.65;;;;;;;;;;6191157;23;20005;-90
2022/06/05 04:46:07;;;;;;;7.75;6.50;;;;;;;;;;6190049;23;20004;-91
2022/06/05 04:48:34;;;;;;;8.15;6.72;;;;;;;;;;6190607;23;20024;-90
2022/06/05 04:51:03;;;;;;;6.35;5.57;;;;;;;;;;6190465;23;20074;-90
2022/06/05 04:53:29;;;;;;;5.88;5.28;;;;;;;;;;6190420;23;20004;-91
2022/06/05 04:55:59;;;;;;;6.47;5.78;;;;;;;;;;6190196;23;20044;-92
2022/06/05 04:58:28;;;;;;;8.43;5.70;;;;;;;;;;6190545;23;20031;-91
2022/06/05 05:00:55;;;;;;;7.60;4.97;;;;;;;;;;6189960;23;20028;-91
2022/06/05 05:03:25;;;;;;;9.23;5.28;;;;;;;;;;6190734;23;20009;-92
2022/06/05 05:05:57;;;;;;;7.05;4.10;;;;;;;;;;6190394;23;20067;-92
2022/06/05 05:08:26;;;;;;;;;;;;;;;;;;6191360;23;20008;-91
2022/06/05 05:10:58;;;;;;;7.43;4.47;;;;;;;;;;6190854;23;19942;-90
2022/06/05 05:13:28;;;;;;;5.13;4.25;;;;;;;;;;6190889;23;20474;-90
2022/06/05 05:15:57;;;;;;;6.78;3.70;;;;;;;;;;6190877;23;20004;-92
2022/06/05 05:18:24;;;;;;;6.28;3.10;;;;;;;;;;6190543;23;20008;-91
2022/06/05 05:20:50;;;;;;;4.75;3.53;;;;;;;;;;6191540;23;20001;-91
2022/06/05 05:23:20;;;;;;;5.53;3.45;;;;;;;;;;6193276;23;20019;-90
2022/06/05 05:25:47;;;;;;;6.05;4.28;;;;;;;;;;6190584;23;20016;-92
2022/06/05 05:28:20;;;;;;;4.22;3.22;;;;;;;;;;6190468;23;20012;-91
2022/06/05 05:30:47;;;;;;;6.20;4.13;;;;;;;;;;6190419;23;20078;-92
2022/06/05 05:33:14;;;;;;;4.18;3.20;;;;;;;;;;6190408;23;20062;-91
2022/06/05 05:35:43;;;;;;;5.95;3.30;;;;;;;;;;6189962;23;20059;-91
2022/06/05 05:38:13;;;;;;;4.40;3.30;;;;;;;;;;6190566;23;20338;-91
2022/06/05 05:43:30;;;;;;;3.53;3.13;;;;;;;;;;6218472;23;20064;-92
2022/06/05 05:45:56;;;;;;;5.72;3.83;;;;;;;;;;6192062;23;20000;-91
2022/06/05 05:48:23;;;;;;;7.00;3.92;;;;;;;;;;6192222;23;20457;-91
2022/06/05 05:50:49;;;;;;;4.97;4.20;;;;;;;;;;6192349;23;20028;-90
2022/06/05 05:53:15;;;;;;;3.63;3.33;;;;;;;;;;6192274;23;20088;-89
2022/06/05 05:55:42;;;;;;;5.15;3.60;;;;;;;;;;6192103;23;20023;-89
2022/06/05 05:58:08;;;;;;;5.70;3.78;;;;;;;;;;6200068;23;20007;-89
2022/06/05 06:00:35;;;;;;;5.43;3.30;;;;;;;;;;6193138;23;20009;-89
2022/06/05 06:03:04;;;;;;;4.43;2.92;;;;;;;;;;6191981;23;20491;-90
2022/06/05 06:05:31;;;;;;;4.28;3.75;;;;;;;;;;6191513;23;20088;-90
2022/06/05 06:07:57;;;;;;;4.45;3.90;;;;;;;;;;6191448;23;20005;-90
2022/06/05 06:10:24;;;;;;;4.07;3.67;;;;;;;;;;6192060;23;20020;-91
2022/06/05 06:12:50;;;;;;;6.35;4.07;;;;;;;;;;6191740;23;20087;-89
2022/06/05 06:15:17;;;;;;;6.15;4.25;;;;;;;;;;6192045;23;20028;-89
2022/06/05 06:17:43;;;;;;;4.72;4.20;;;;;;;;;;6192569;23;20441;-89
2022/06/05 06:20:12;;;;;;;4.57;4.18;;;;;;;;;;6192065;23;20008;-89
2022/06/05 06:22:41;;;;;;;5.82;5.13;;;;;;;;;;6191654;23;20004;-89
2022/06/05 06:25:08;;;;;;;4.75;3.67;;;;;;;;;;6218606;23;20013;-90
2022/06/05 06:27:34;;;;;;;4.95;3.75;;;;;;;;;;6192177;23;20015;-89
2022/06/05 06:30:00;;;;;;;5.15;3.42;;;;;;;;;;6191908;23;20426;-89
2022/06/05 06:32:27;;;;;;;5.32;3.75;;;;;;;;;;6191973;23;20087;-89
2022/06/05 06:34:54;;;;;;;6.25;4.00;;;;;;;;;;6192032;23;20016;-91
2022/06/05 06:37:20;;;;;;;4.38;3.67;;;;;;;;;;6195031;23;20004;-89
2022/06/05 06:39:46;;;;;;;8.20;3.28;;;;;;;;;;6191951;23;20011;-89
2022/06/05 06:42:13;;;;;;;5.57;3.40;;;;;;;;;;6192716;23;20419;-89
2022/06/05 06:44:39;;;;;;;4.05;2.95;;;;;;;;;;6191592;23;20040;-90
2022/06/05 06:47:05;;;;;;;5.55;3.28;;;;;;;;;;6218816;23;20004;-89
2022/06/05 06:49:33;;;;;;;4.00;2.85;;;;;;;;;;6191827;23;20009;-89
2022/06/05 06:52:03;;;;;;;4.68;3.20;;;;;;;;;;6191758;23;20015;-90
2022/06/05 06:54:29;;;;;;;4.28;3.20;;;;;;;;;;6192154;23;20051;-90
2022/06/05 06:56:56;;;;;;;4.15;3.55;;;;;;;;;;6169542;23;20025;-88
2022/06/05 06:59:23;;;;;;;5.90;4.07;;;;;;;;;;6162199;23;20380;-89
2022/06/05 07:01:50;;;;;;;4.43;3.78;;;;;;;;;;6161496;23;20009;-89
2022/06/05 07:07:37;;;;;;;5.72;4.22;;;;;;;;;;6039773;23;20034;-88
2022/06/05 07:10:06;;;;;;;4.35;3.65;;;;;;;;;;6038407;23;20001;-89
2022/06/05 07:12:42;;;;;;;4.63;3.20;;;;;;;;;;6161431;23;20009;-90
2022/06/05 07:15:42;;;;;;;8.43;3.92;;;;;;;;;;6161037;23;20001;-90
2022/06/05 07:18:08;;;;;;;4.07;3.53;;;;;;;;;;6173758;23;20009;-89
2022/06/05 07:20:36;;;;;;;3.95;3.55;;;;;;;;;;6171351;23;19985;-87
2022/06/05 07:23:03;;;;;;;5.55;4.30;;;;;;;;;;6163127;23;20062;-90
2022/06/05 07:25:29;;;;;;;6.53;4.22;;;;;;;;;;6161809;23;20021;-90
2022/06/05 07:27:57;;;;;;;5.25;4.10;;;;;;;;;;6161520;23;20013;-87
2022/06/05 07:30:24;;;;;;;4.80;3.88;;;;;;;;;;6161627;23;20041;-88
2022/06/05 07:32:50;;;;;;;5.13;4.40;;;;;;;;;;6161794;23;20007;-89
2022/06/05 07:35:20;;;;;;;5.05;4.20;;;;;;;;;;6161693;23;20036;-90
2022/06/05 07:37:46;;;;;;;7.90;3.90;;;;;;;;;;6187288;23;20001;-89
2022/06/05 07:40:13;;;;;;;5.38;3.70;;;;;;;;;;6161219;23;20001;-89
2022/06/05 07:42:40;;;;;;;8.57;3.75;;;;;;;;;;6160971;23;20005;-89
2022/06/05 07:45:08;;;;;;;4.97;3.83;;;;;;;;;;6161134;23;20056;-91
2022/06/05 07:47:35;;;;;;;5.45;3.65;;;;;;;;;;6160701;23;20008;-89
2022/06/05 07:50:01;;;;;;;4.75;3.55;;;;;;;;;;6160883;23;20092;-90
2022/06/05 07:55:12;;;;;;;4.68;3.20;;;;;;;;;;6188246;23;20079;-89
2022/06/05 07:57:39;;;;;;;5.55;3.78;;;;;;;;;;6190692;23;20012;-89
2022/06/05 08:00:08;;;;;;;4.10;3.30;;;;;;;;;;6190775;23;20004;-88
2022/06/05 08:02:34;;;;;;;3.65;3.35;;;;;;;;;;6190523;23;20005;-90
2022/06/05 08:05:04;;;;;;;3.85;3.17;;;;;;;;;;6190982;23;20095;-91
2022/06/05 08:07:32;;;;;;;4.32;3.10;;;;;;;;;;6200763;23;20019;-89
2022/06/05 08:10:02;;;;;;;3.58;3.03;;;;;;;;;;6191090;23;20012;-90
2022/06/05 08:12:30;;;;;;;3.72;2.92;;;;;;;;;;6190589;23;20077;-89
2022/06/05 08:14:57;;;;;;;3.95;3.17;;;;;;;;;;6190660;23;20084;-90
2022/06/05 08:17:25;;;;;;;3.78;3.03;;;;;;;;;;6190580;23;20015;-89
2022/06/05 08:19:55;;;;;;;3.30;2.55;;;;;;;;;;6190465;23;20083;-90
2022/06/05 08:22:22;;;;;;;3.50;2.33;;;;;;;;;;6190359;23;20032;-90
2022/06/05 08:24:48;;;;;;;3.17;2.85;;;;;;;;;;6190495;23;20028;-89
2022/06/05 08:27:19;;;;;;;3.47;2.65;;;;;;;;;;6190535;23;20055;-89
2022/06/05 08:29:48;;;;;;;2.85;2.55;;;;;;;;;;6191108;23;20008;-88
2022/06/05 08:32:18;;;;;;;3.53;2.53;;;;;;;;;;6190678;23;20449;-92
2022/06/05 08:34:45;;;;;;;3.03;2.40;;;;;;;;;;6191402;23;20051;-89
2022/06/05 08:42:45;;;;;;;3.28;2.20;;;;;;;;;;6217154;23;20058;-89
2022/06/05 08:45:21;;;;;;;3.00;2.20;;;;;;;;;;6190531;23;20017;-90
2022/06/05 08:47:57;;;;;;;3.00;2.70;;;;;;;;;;6190168;23;20011;-89
2022/06/05 08:50:39;;;;;;;2.65;2.17;;;;;;;;;;6191436;23;20008;-90
2022/06/05 08:53:20;;;;;;;3.63;2.38;;;;;;;;;;6196520;23;20067;-91
2022/06/05 08:55:47;;;;;;;;;;;;;;;;;;6205939;23;20063;-89
2022/06/05 08:58:16;;;;;;;2.75;2.13;;;;;;;;;;6190155;23;19958;-91
2022/06/05 09:00:44;;;;;;;3.00;2.13;;;;;;;;;;6190850;23;20008;-89
2022/06/05 09:03:13;;;;;;;3.70;2.00;;;;;;;;;;6190432;23;20028;-89
2022/06/05 09:05:51;;;;;;;3.55;2.50;;;;;;;;;;6190075;23;20092;-90
2022/06/05 09:08:21;;;;;;;3.88;2.20;;;;;;;;;;6190125;23;20031;-91
2022/06/05 09:10:53;;;;;;;3.25;2.30;;;;;;;;;;6190263;23;20004;-89
2022/06/05 09:13:19;;;;;;;;;;;;;;;;;;6191150;23;20059;-91
2022/06/05 09:16:01;;;;;;;2.85;1.80;;;;;;;;;;6192148;23;20363;-92
2022/06/05 09:18:27;;;;;;;;;;;;;;;;;;6192615;23;20001;-91
2022/06/05 09:21:06;;;;;;;2.90;2.10;;;;;;;;;;6192383;23;19907;-90
2022/06/05 09:23:39;;;;;;;4.25;1.77;;;;;;;;;;6192021;23;20008;-90
2022/06/05 09:26:05;;;;;;;2.50;1.90;;;;;;;;;;6192482;23;20155;-88
2022/06/05 09:28:39;;;;;;;2.88;1.88;;;;;;;;;;6191925;23;20009;-93
2022/06/05 09:31:24;;;;;;;4.38;2.00;;;;;;;;;;6194039;23;20000;-89
2022/06/05 09:33:55;;;;;;;2.03;1.52;;;;;;;;;;6194779;23;20009;-91
2022/06/05 09:36:24;;;;;;;2.65;1.60;;;;;;;;;;6191794;23;20000;-89
2022/06/05 09:39:10;;;;;;;2.85;2.00;;;;;;;;;;6191872;23;20009;-91
2022/06/05 09:41:49;;;;;;;2.00;1.75;;;;;;;;;;6171467;23;20431;-89
2022/06/05 09:44:18;;;;;;;3.67;1.90;;;;;;;;;;6191740;23;20074;-91
2022/06/05 09:46:59;;;;;;;4.05;2.10;;;;;;;;;;6192138;23;20418;-90
2022/06/05 09:49:26;;;;;;;;;;;;;;;;;;6192440;23;20004;-92
2022/06/05 09:51:52;;;;;;;2.40;1.90;;;;;;;;;;6191769;23;19900;-90
2022/06/05 09:54:27;;;;;;;2.42;1.85;;;;;;;;;;6191915;23;20008;-92
2022/06/05 10:00:08;;;;;;;4.38;2.10;;;;;;;;;;6220853;23;20066;-90
2022/06/05 10:02:35;;;;;;;2.30;2.08;;;;;;;;;;6191821;23;20500;-92
2022/06/05 10:05:01;;;;;;;3.47;2.38;;;;;;;;;;6191672;23;20383;-91
2022/06/05 10:07:48;;;;;;;4.93;1.90;;;;;;;;;;6191822;23;20446;-91
2022/06/05 10:10:19;;;;;;;3.38;2.40;;;;;;;;;;6191706;23;20015;-91
2022/06/05 10:12:58;;;;;;;3.65;1.77;;;;;;;;;;6192228;23;20001;-89
2022/06/05 10:15:27;;;;;;;5.50;2.00;;;;;;;;;;6191232;23;20009;-90
2022/06/05 10:17:53;;;;;;;3.03;2.00;;;;;;;;;;6196078;23;20032;-89
2022/06/05 10:20:39;;;;;;;3.58;1.80;;;;;;;;;;6200917;23;20008;-94
2022/06/05 10:23:14;;;;;;;2.80;1.65;;;;;;;;;;6131461;23;20006;-89
2022/06/05 10:25:46;;;;;;;2.05;1.52;;;;;;;;;;6131043;23;20013;-92
2022/06/05 10:28:15;;;;;;;2.85;1.60;;;;;;;;;;6139163;23;20006;-90
2022/06/05 10:30:56;;;;;;;2.38;1.70;;;;;;;;;;6131131;23;20009;-89
2022/06/05 10:33:43;;;;;;;2.13;1.50;;;;;;;;;;6131211;23;20483;-89
2022/06/05 10:36:17;;;;;;;2.80;1.52;;;;;;;;;;6131248;23;20005;-91
2022/06/05 10:39:01;;;;;;;3.45;1.70;;;;;;;;;;6127726;23;20002;-91
2022/06/05 10:41:34;;;;;;;1.98;1.65;;;;;;;;;;6134308;23;20005;-92
2022/06/05 10:44:14;;;;;;;2.53;1.70;;;;;;;;;;6130783;23;20153;-88
2022/06/05 10:46:45;;;;;;;4.55;1.45;;;;;;;;;;6131141;23;20386;-90
2022/06/05 10:49:39;;;;;;;3.15;1.73;;;;;;;;;;6131250;23;20001;-90
2022/06/05 10:52:13;;;;;;;2.50;1.63;;;;;;;;;;6078742;23;20006;-91
2022/06/05 10:54:39;;;;;;;2.85;1.60;;;;;;;;;;6175989;23;20056;-89
2022/06/05 10:57:13;;;;;;;2.63;1.85;;;;;;;;;;6191098;23;20022;-90
2022/06/05 10:59:40;;;;;;;3.15;1.60;;;;;;;;;;6197944;23;20004;-88
2022/06/05 11:02:26;;;;;;;3.30;2.00;;;;;;;;;;6191153;23;20011;-91
2022/06/05 11:05:06;;;;;;;4.10;1.73;;;;;;;;;;6191754;23;20040;-87
2022/06/05 11:07:53;;;;;;;3.08;1.80;;;;;;;;;;6191251;23;20004;-89
2022/06/05 11:13:40;;;;;;;4.07;2.40;;;;;;;;;;6217578;23;20023;-90
2022/06/05 11:16:09;;;;;;;3.42;2.60;;;;;;;;;;6191340;23;20009;-88
2022/06/05 11:18:40;;;;;;;3.92;2.80;;;;;;;;;;6191511;23;20020;-88
2022/06/05 11:21:07;;;;;;;6.22;3.10;;;;;;;;;;6192602;23;20004;-88
2022/06/05 11:23:35;;;;;;;6.10;3.42;;;;;;;;;;6220997;23;20023;-87
2022/06/05 11:26:11;;;;;;;5.43;3.40;;;;;;;;;;6191418;23;20024;-92
2022/06/05 11:28:40;;;;;;;5.00;3.22;;;;;;;;;;6191116;23;20453;-88
2022/06/05 11:31:08;;;;;;;3.95;3.40;;;;;;;;;;6190916;23;20131;-92
2022/06/05 11:33:39;;;;;;;7.95;3.40;;;;;;;;;;6190899;23;20031;-88
2022/06/05 11:36:43;;;;;;;4.90;3.70;;;;;;;;;;6190823;23;20039;-92
2022/06/05 11:39:19;;;;;;;6.32;3.63;;;;;;;;;;6096225;23;20035;-92
2022/06/05 11:41:52;;;;;;;5.70;3.90;;;;;;;;;;6177204;23;20028;-92
2022/06/05 11:44:24;;;;;;;4.45;4.05;;;;;;;;;;6192868;23;20080;-90
2022/06/05 11:47:10;;;;;;;6.35;4.43;;;;;;;;;;6190912;23;20000;-89
2022/06/05 11:49:55;;;;;;;4.13;3.72;;;;;;;;;;6191266;23;20008;-92
2022/06/05 11:52:41;;;;;;;5.13;4.07;;;;;;;;;;6195717;23;20001;-90
2022/06/05 11:55:10;;;;;;;4.20;3.80;;;;;;;;;;6189716;23;20062;-89
2022/06/05 11:57:46;;;;;;;6.65;4.03;;;;;;;;;;6190163;23;20016;-89
2022/06/05 12:00:17;;;;;;;6.43;3.72;;;;;;;;;;6191282;23;20334;-90
2022/06/05 12:02:49;;;;;;;4.07;3.67;;;;;;;;;;6190704;23;20486;-87
2022/06/05 12:05:39;;;;;;;7.63;4.32;;;;;;;;;;6190592;23;20020;-94
2022/06/05 12:08:07;;;;;;;4.45;3.80;;;;;;;;;;6175186;23;20053;-89
2022/06/05 12:10:36;;;;;;;6.10;3.70;;;;;;;;;;6190390;23;20096;-89
2022/06/05 12:13:27;;;;;;;7.70;3.80;;;;;;;;;;6190667;23;20430;-90
2022/06/05 12:15:59;;;;;;;4.35;3.53;;;;;;;;;;6190535;23;20011;-87
2022/06/05 12:18:28;;;;;;;4.50;3.67;;;;;;;;;;6190865;23;20004;-90
2022/06/05 12:21:04;;;;;;;6.32;3.67;;;;;;;;;;6199195;23;20013;-89
2022/06/05 12:23:33;;;;;;;3.60;3.30;;;;;;;;;;6190512;23;20418;-90
2022/06/05 12:26:01;;;;;;;4.55;3.70;;;;;;;;;;6190253;23;20027;-90
2022/06/05 12:28:40;;;;;;;3.78;3.20;;;;;;;;;;6190374;23;20036;-89
2022/06/05 12:31:39;;;;;;;4.13;3.28;;;;;;;;;;6216801;23;19997;-89
2022/06/05 12:37:21;;;;;;;3.53;3.03;;;;;;;;;;6204006;23;20036;-89
2022/06/05 12:42:48;;;;;;;5.70;2.85;;;;;;;;;;6185837;23;20032;-89
2022/06/05 12:45:18;;;;;;;5.53;3.22;;;;;;;;;;6154541;23;20021;-91
2022/06/05 12:48:15;;;;;;;3.80;3.20;;;;;;;;;;6130173;23;20399;-93
2022/06/05 12:51:06;;;;;;;3.40;2.80;;;;;;;;;;6140231;23;20005;-89
2022/06/05 12:53:41;;;;;;;5.43;2.80;;;;;;;;;;6130385;23;20060;-89
2022/06/05 12:56:07;;;;;;;4.13;2.75;;;;;;;;;;6130813;23;20009;-89
2022/06/05 12:58:51;;;;;;;4.03;2.90;;;;;;;;;;6130777;23;20006;-90
2022/06/05 13:01:22;;;;;;;6.10;3.20;;;;;;;;;;6130543;23;20013;-89
2022/06/05 13:04:02;;;;;;;5.22;3.00;;;;;;;;;;6131047;23;20101;-88
2022/06/05 13:06:37;;;;;;;4.63;3.20;;;;;;;;;;6130838;23;20013;-89
2022/06/05 13:09:28;;;;;;;4.32;2.90;;;;;;;;;;6124768;23;20013;-89
2022/06/05 13:12:01;;;;;;;5.63;2.80;;;;;;;;;;6130201;23;20093;-88
2022/06/05 13:14:45;;;;;;;7.00;2.80;;;;;;;;;;6130571;23;20033;-90
2022/06/05 13:17:15;;;;;;;3.03;2.63;;;;;;;;;;6181392;23;20005;-87
2022/06/05 13:19:56;;;;;;;4.13;2.72;;;;;;;;;;6195917;23;20035;-89
2022/06/05 13:22:34;;;;;;;6.10;3.17;;;;;;;;;;6190150;23;20005;-89
2022/06/05 13:25:12;;;;;;;4.00;2.97;;;;;;;;;;6185328;23;20017;-88
2022/06/05 13:27:58;;;;;;;5.18;3.00;;;;;;;;;;6185238;23;20527;-91
2022/06/05 13:30:26;;;;;;;5.88;3.25;;;;;;;;;;6188045;23;20001;-90
2022/06/05 13:32:52;;;;;;;5.00;3.10;;;;;;;;;;6185228;23;20077;-88
2022/06/05 13:35:37;;;;;;;4.45;2.97;;;;;;;;;;6184817;23;20020;-88
2022/06/05 13:38:18;;;;;;;3.42;2.95;;;;;;;;;;6160174;23;20012;-88
2022/06/05 13:41:06;;;;;;;3.97;2.80;;;;;;;;;;6189631;23;20350;-89
2022/06/05 13:43:40;;;;;;;4.80;3.42;;;;;;;;;;6189572;23;20009;-90
2022/06/05 13:46:24;;;;;;;3.78;3.10;;;;;;;;;;6190180;23;20020;-88
2022/06/05 13:48:55;;;;;;;4.95;3.30;;;;;;;;;;6193118;23;20338;-89
2022/06/05 13:51:27;;;;;;;3.30;2.85;;;;;;;;;;6190164;23;20013;-89
2022/06/05 13:54:04;;;;;;;5.23;3.67;;;;;;;;;;6190750;23;20001;-88
2022/06/05 13:56:38;;;;;;;3.95;3.55;;;;;;;;;;6190652;23;20005;-90
2022/06/05 13:59:04;;;;;;;4.55;3.85;;;;;;;;;;6190231;23;20445;-89
2022/06/05 14:01:33;;;;;;;8.00;4.38;;;;;;;;;;6191844;23;20024;-91
2022/06/05 14:04:20;;;;;;;5.63;4.00;;;;;;;;;;6191914;23;20135;-89
2022/06/05 14:07:08;;;;;;;6.60;4.20;;;;;;;;;;6176487;23;20008;-87
2022/06/05 14:09:34;;;;;;;5.13;4.25;;;;;;;;;;6191897;23;20057;-88
2022/06/05 14:12:01;;;;;;;4.20;3.55;;;;;;;;;;6218084;23;20072;-89
2022/06/05 14:14:42;;;;;;;5.65;3.70;;;;;;;;;;6217831;23;20001;-88
2022/06/05 14:17:12;;;;;;;5.63;4.50;;;;;;;;;;6195461;23;20005;-87
2022/06/05 14:19:44;;;;;;;5.45;3.83;;;;;;;;;;6191487;23;20522;-92
2022/06/05 14:22:20;;;;;;;5.35;4.00;;;;;;;;;;6192217;23;20012;-91
2022/06/05 14:24:55;;;;;;;5.43;4.00;;;;;;;;;;6192222;23;20017;-94
2022/06/05 14:27:45;;;;;;;7.75;4.22;;;;;;;;;;6192012;23;20005;-89
2022/06/05 14:30:22;;;;;;;4.22;3.83;;;;;;;;;;6181233;23;20143;-88
2022/06/05 14:32:49;;;;;;;5.15;4.00;;;;;;;;;;6191779;23;20013;-91
2022/06/05 14:35:36;;;;;;;4.78;3.80;;;;;;;;;;6191713;23;20385;-92
2022/06/05 14:38:13;;;;;;;6.50;4.68;;;;;;;;;;6191568;23;20500;-88
2022/06/05 14:40:58;;;;;;;5.45;4.50;;;;;;;;;;6219224;23;20422;-89
2022/06/05 14:43:27;;;;;;;5.07;4.57;;;;;;;;;;6193022;23;20016;-90
2022/06/05 14:46:03;;;;;;;5.95;4.18;;;;;;;;;;6191916;23;20012;-90
2022/06/05 14:48:38;;;;;;;5.93;4.65;;;;;;;;;;6193480;23;20005;-90
2022/06/05 14:51:10;;;;;;;4.70;3.90;;;;;;;;;;6191707;23;20004;-91
2022/06/05 14:53:54;;;;;;;9.88;4.13;;;;;;;;;;6191096;23;20330;-93
2022/06/05 14:59:42;;;;;;;8.32;3.60;;;;;;;;;;6220102;23;20027;-91
2022/06/05 15:02:11;;;;;;;4.47;3.85;;;;;;;;;;6191187;23;20008;-91
2022/06/05 15:04:48;;;;;;;5.47;3.70;;;;;;;;;;6191700;23;20024;-92
2022/06/05 15:07:22;;;;;;;5.13;3.38;;;;;;;;;;6191228;23;20079;-92
2022/06/05 15:09:51;;;;;;;5.00;3.55;;;;;;;;;;6191462;23;20013;-88
2022/06/05 15:12:29;;;;;;;5.57;3.40;;;;;;;;;;6191164;23;20008;-94
2022/06/05 15:15:13;;;;;;;5.13;3.50;;;;;;;;;;6215892;23;20036;-91
2022/06/05 15:18:16;;;;;;;5.15;3.55;;;;;;;;;;6192927;23;20005;-94
2022/06/05 15:20:45;;;;;;;5.75;3.60;;;;;;;;;;6190442;23;20001;-90
2022/06/05 15:23:29;;;;;;;4.30;3.35;;;;;;;;;;6217777;23;20001;-89
2022/06/05 15:26:22;;;;;;;3.85;3.20;;;;;;;;;;6191328;23;20095;-90
2022/06/05 15:28:56;;;;;;;4.00;3.60;;;;;;;;;;6188354;23;20027;-87
2022/06/05 15:31:52;;;;;;;4.25;3.60;;;;;;;;;;6190923;23;20008;-81
2022/06/05 15:34:36;;;;;;;5.72;3.58;;;;;;;;;;6171446;23;20009;-81
2022/06/05 15:37:20;;;;;;;3.70;3.15;;;;;;;;;;6216937;23;20027;-85
2022/06/05 15:40:09;;;;;;;6.40;3.72;;;;;;;;;;6191145;23;20315;-89
2022/06/05 15:42:36;;;;;;;5.10;3.58;;;;;;;;;;6096488;23;20032;-82
2022/06/05 15:45:12;;;;;;;4.75;3.65;;;;;;;;;;6150762;23;20143;-88
2022/06/05 15:47:49;;;;;;;5.70;3.30;;;;;;;;;;6162536;23;20059;-94
2022/06/05 15:50:23;;;;;;;4.25;3.17;;;;;;;;;;6161128;23;20016;-82